Time;durP1;ratioP1;P1;durP2;ratioP2;P2;SDS_P1;SDS_P2;PMS_P1;PMS_P2;Temp;Humidity;BMP_temperature;BMP_pressure;BME280_temperature;BME280_humidity;BME280_pressure;Samples;Min_cycle;Max_cycle;Signal;HPM_P1;HPM_P2
2023/07/02 00:01:34;;;;;;;12.45;4.40;;;;;;;15.04;100.00;100515.25;4947742;28;20057;-77
2023/07/02 00:04:20;;;;;;;17.27;5.13;;;;;;;14.99;100.00;100520.03;4949305;28;20043;-77
2023/07/02 00:07:06;;;;;;;11.00;4.32;;;;;;;14.99;100.00;100516.53;4961441;28;22095;-75
2023/07/02 00:09:52;;;;;;;16.38;4.97;;;;;;;14.94;100.00;100519.53;4961225;28;20494;-75
2023/07/02 00:12:38;;;;;;;13.38;5.10;;;;;;;14.90;100.00;100507.34;4959871;28;20042;-76
2023/07/02 00:15:23;;;;;;;15.05;5.40;;;;;;;14.87;100.00;100508.41;4961366;28;20510;-75
2023/07/02 00:18:09;;;;;;;13.85;4.95;;;;;;;14.85;100.00;100504.16;4958748;28;20497;-76
2023/07/02 00:20:55;;;;;;;14.52;5.55;;;;;;;14.82;100.00;100512.38;4958956;28;20073;-76
2023/07/02 00:23:41;;;;;;;15.25;5.50;;;;;;;14.79;100.00;100508.97;4960462;28;20482;-76
2023/07/02 00:26:27;;;;;;;13.68;5.50;;;;;;;14.75;100.00;100510.13;4950269;28;20421;-76
2023/07/02 00:29:13;;;;;;;14.43;5.13;;;;;;;14.72;100.00;100510.31;4958994;28;20168;-76
2023/07/02 00:31:59;;;;;;;15.00;5.65;;;;;;;14.68;100.00;100514.13;4962412;28;20038;-76
2023/07/02 00:34:45;;;;;;;14.45;5.55;;;;;;;14.64;100.00;100508.16;4960404;28;20047;-76
2023/07/02 00:37:31;;;;;;;14.05;5.03;;;;;;;14.58;100.00;100508.56;4961172;28;20136;-76
2023/07/02 00:40:16;;;;;;;13.77;5.00;;;;;;;14.54;100.00;100501.72;4962381;28;21867;-76
2023/07/02 00:43:02;;;;;;;14.20;4.78;;;;;;;14.50;100.00;100500.25;4961988;28;20039;-76
2023/07/02 00:45:48;;;;;;;17.27;5.68;;;;;;;14.45;100.00;100503.22;4962039;28;20058;-76
2023/07/02 00:48:34;;;;;;;14.35;5.13;;;;;;;14.40;100.00;100508.00;4946283;28;20053;-76
2023/07/02 00:51:24;;;;;;;17.63;5.60;;;;;;;14.36;100.00;100503.81;4961941;28;20042;-75
2023/07/02 00:54:10;;;;;;;15.15;5.38;;;;;;;14.32;100.00;100502.34;4960396;28;20058;-75
2023/07/02 00:56:56;;;;;;;14.20;5.05;;;;;;;14.26;100.00;100493.81;4960925;28;20045;-75
2023/07/02 00:59:42;;;;;;;16.15;5.10;;;;;;;14.23;100.00;100498.47;4959368;28;20486;-75
2023/07/02 01:02:29;;;;;;;13.57;5.03;;;;;;;14.18;100.00;100493.47;4946273;28;20518;-75
2023/07/02 01:05:15;;;;;;;15.13;5.43;;;;;;;14.15;100.00;100490.16;4960994;28;20035;-75
2023/07/02 01:08:05;;;;;;;17.48;5.10;;;;;;;14.09;100.00;100494.06;4962100;28;20105;-76
2023/07/02 01:10:51;;;;;;;13.13;5.32;;;;;;;14.04;100.00;100494.38;4960581;28;20051;-76
2023/07/02 01:13:37;;;;;;;16.50;5.65;;;;;;;13.97;100.00;100488.59;4948565;28;20066;-76
2023/07/02 01:16:23;;;;;;;15.40;5.22;;;;;;;13.98;100.00;100495.63;4958362;28;20773;-76
2023/07/02 01:19:21;;;;;;;16.13;5.07;;;;;;;13.94;100.00;100488.78;4962224;28;20038;-76
2023/07/02 01:22:07;;;;;;;12.98;5.55;;;;;;;13.92;100.00;100489.84;4960210;28;20417;-75
2023/07/02 01:24:54;;;;;;;15.85;5.13;;;;;;;13.93;100.00;100496.88;4958059;28;20066;-77
2023/07/02 01:27:40;;;;;;;16.65;5.68;;;;;;;13.88;100.00;100491.00;4958681;28;20043;-76
2023/07/02 01:30:26;;;;;;;16.80;5.40;;;;;;;13.85;100.00;100492.91;4958522;28;20042;-75
2023/07/02 01:33:19;;;;;;;19.15;5.72;;;;;;;13.84;100.00;100498.34;4957629;28;20085;-76
2023/07/02 01:36:05;;;;;;;13.55;4.88;;;;;;;13.77;100.00;100492.56;4960899;28;21897;-76
2023/07/02 01:38:51;;;;;;;13.55;5.60;;;;;;;13.78;100.00;100491.59;4948601;28;20639;-75
2023/07/02 01:41:42;;;;;;;15.73;5.03;;;;;;;13.77;100.00;100497.88;4959434;28;20097;-75
2023/07/02 01:44:28;;;;;;;14.88;5.25;;;;;;;13.74;100.00;100494.56;4962420;28;20034;-75
2023/07/02 01:47:15;;;;;;;15.73;5.00;;;;;;;13.71;100.00;100496.47;4961866;28;20121;-75
2023/07/02 01:50:03;;;;;;;19.23;5.70;;;;;;;13.74;100.00;100502.53;4960167;28;20476;-76
2023/07/02 01:52:49;;;;;;;16.98;5.93;;;;;;;13.74;100.00;100494.56;4947726;28;20141;-75
2023/07/02 01:55:34;;;;;;;17.98;5.50;;;;;;;13.72;100.00;100502.63;4947286;28;20061;-75
2023/07/02 01:58:20;;;;;;;16.15;5.50;;;;;;;13.72;100.00;100502.63;4961446;28;20122;-75
2023/07/02 02:01:06;;;;;;;16.25;5.85;;;;;;;13.70;100.00;100492.09;4959872;28;20105;-75
2023/07/02 02:03:52;;;;;;;18.45;5.60;;;;;;;13.69;100.00;100495.69;4959399;28;20039;-75
2023/07/02 02:06:39;;;;;;;19.63;5.47;;;;;;;13.68;100.00;100499.31;4959234;28;20042;-76
2023/07/02 02:09:24;;;;;;;15.48;5.32;;;;;;;13.69;100.00;100495.69;4960901;28;20031;-75
2023/07/02 02:12:10;;;;;;;14.02;5.20;;;;;;;13.66;100.00;100500.34;4959557;28;20042;-75
2023/07/02 02:14:56;;;;;;;10.73;5.07;;;;;;;13.63;100.00;100501.44;4947414;28;20051;-75
2023/07/02 02:17:41;;;;;;;11.32;4.88;;;;;;;13.61;100.00;100508.63;4959494;28;20042;-76
2023/07/02 02:20:30;;;;;;;19.13;5.40;;;;;;;13.59;100.00;100499.91;4960558;28;20149;-75
2023/07/02 02:23:16;;;;;;;16.15;5.35;;;;;;;13.57;100.00;100501.81;4959913;28;20638;-75
2023/07/02 02:26:02;;;;;;;17.67;4.95;;;;;;;13.56;100.00;100513.38;4959326;28;20043;-75
2023/07/02 02:28:48;;;;;;;16.35;5.30;;;;;;;13.55;100.00;100511.69;4959574;28;20105;-75
2023/07/02 02:31:34;;;;;;;16.50;4.90;;;;;;;13.55;100.00;100514.34;4962175;28;20077;-76
2023/07/02 02:34:20;;;;;;;13.40;4.97;;;;;;;13.51;100.00;100511.03;4960584;28;20039;-76
2023/07/02 02:37:06;;;;;;;14.50;5.38;;;;;;;13.52;100.00;100511.91;4960263;28;20043;-76
2023/07/02 02:39:51;;;;;;;16.00;5.38;;;;;;;13.50;100.00;100511.97;4949180;28;20658;-75
2023/07/02 02:42:38;;;;;;;17.75;4.80;;;;;;;13.50;100.00;100517.31;4963311;28;20039;-75
2023/07/02 02:45:24;;;;;;;16.80;5.45;;;;;;;13.51;100.00;100521.66;4949653;28;20544;-75
2023/07/02 02:48:10;;;;;;;15.80;5.32;;;;;;;13.54;100.00;100523.28;4962971;28;20051;-76
2023/07/02 02:50:56;;;;;;;16.88;5.00;;;;;;;13.54;100.00;100523.28;4962981;28;20050;-77
2023/07/02 02:53:46;;;;;;;15.05;5.05;;;;;;;13.59;100.00;100523.84;4962894;28;20053;-75
2023/07/02 02:56:32;;;;;;;15.25;5.03;;;;;;;13.60;100.00;100525.56;4963457;28;20263;-77
2023/07/02 02:59:18;;;;;;;15.13;4.93;;;;;;;13.63;100.00;100516.53;4962069;28;20038;-76
2023/07/02 03:02:03;;;;;;;11.43;4.78;;;;;;;13.65;100.00;100520.81;4950005;28;20492;-76
2023/07/02 03:04:49;;;;;;;13.57;4.53;;;;;;;13.67;100.00;100518.88;4964107;28;20050;-76
2023/07/02 03:07:35;;;;;;;15.95;5.15;;;;;;;13.73;100.00;100516.78;4948767;28;20582;-77
2023/07/02 03:10:21;;;;;;;9.27;4.40;;;;;;;13.74;100.00;100519.38;4962546;28;20042;-76
2023/07/02 03:13:07;;;;;;;17.40;5.10;;;;;;;13.76;100.00;100521.91;4963587;28;20040;-76
2023/07/02 03:15:53;;;;;;;10.25;4.63;;;;;;;13.79;100.00;100516.41;4962467;28;20056;-77
2023/07/02 03:18:39;;;;;;;15.65;5.13;;;;;;;13.81;100.00;100520.69;4952728;28;20035;-77
2023/07/02 03:21:25;;;;;;;15.45;5.32;;;;;;;13.80;100.00;100523.44;4951271;28;20054;-76
2023/07/02 03:24:13;;;;;;;11.85;4.40;;;;;;;13.80;100.00;100523.44;4962038;28;20031;-77
2023/07/02 03:26:59;;;;;;;14.70;4.80;;;;;;;13.81;100.00;100518.00;4963838;28;20034;-78
2023/07/02 03:29:45;;;;;;;15.73;5.15;;;;;;;13.83;100.00;100517.91;4939957;28;20034;-77
2023/07/02 03:32:30;;;;;;;12.00;4.97;;;;;;;13.83;100.00;100525.88;4962235;28;20042;-77
2023/07/02 03:35:16;;;;;;;12.70;4.65;;;;;;;13.84;100.00;100527.63;4960780;28;20053;-77
2023/07/02 03:38:04;;;;;;;10.43;4.85;;;;;;;13.82;100.00;100527.69;4961086;28;20038;-77
2023/07/02 03:40:50;;;;;;;15.40;5.20;;;;;;;13.84;100.00;100535.59;4961444;28;20133;-76
2023/07/02 03:43:35;;;;;;;18.13;4.85;;;;;;;13.83;100.00;100534.72;4962639;28;20034;-75
2023/07/02 03:46:21;;;;;;;13.43;4.35;;;;;;;13.84;100.00;100535.59;4949074;28;20039;-76
2023/07/02 03:49:07;;;;;;;11.25;4.70;;;;;;;13.86;100.00;100531.03;4961829;28;20043;-78
2023/07/02 03:51:52;;;;;;;15.38;4.88;;;;;;;13.86;100.00;100539.00;4960906;28;20111;-76
2023/07/02 03:54:38;;;;;;;15.02;4.68;;;;;;;13.86;100.00;100539.00;4962080;28;20038;-75
2023/07/02 03:57:24;;;;;;;10.93;5.03;;;;;;;13.83;100.00;100544.50;4961630;28;20514;-77
2023/07/02 04:00:13;;;;;;;14.93;4.70;;;;;;;13.82;100.00;100551.66;4962479;28;20046;-75
2023/07/02 04:03:02;;;;;;;11.85;4.90;;;;;;;13.80;100.00;100548.25;4960671;28;20185;-75
2023/07/02 04:05:48;;;;;;;15.38;4.80;;;;;;;13.81;100.00;100562.38;4961242;28;20039;-76
2023/07/02 04:08:34;;;;;;;12.30;4.07;;;;;;;13.79;100.00;100548.31;4962689;28;20039;-75
2023/07/02 04:11:19;;;;;;;13.75;4.57;;;;;;;13.79;100.00;100553.66;4961306;28;20651;-77
2023/07/02 04:14:05;;;;;;;10.18;3.58;;;;;;;13.80;100.00;100556.22;4961605;28;20047;-76
2023/07/02 04:16:51;;;;;;;10.10;3.30;;;;;;;13.82;100.00;100561.44;4961475;28;20042;-76
2023/07/02 04:19:37;;;;;;;11.98;3.90;;;;;;;13.83;100.00;100561.34;4947991;28;20259;-76
2023/07/02 04:22:23;;;;;;;11.95;3.72;;;;;;;13.85;100.00;100558.59;4961875;28;20106;-75
2023/07/02 04:25:09;;;;;;;13.40;3.70;;;;;;;13.85;100.00;100553.25;4961609;28;20090;-75
2023/07/02 04:27:56;;;;;;;11.40;3.53;;;;;;;13.87;100.00;100551.34;4959994;28;20054;-75
2023/07/02 04:30:42;;;;;;;8.90;3.50;;;;;;;13.87;100.00;100551.34;4948882;28;20043;-75
2023/07/02 04:33:35;;;;;;;9.50;3.40;;;;;;;13.88;100.00;100558.38;4961726;28;20042;-75
2023/07/02 04:36:21;;;;;;;9.55;3.75;;;;;;;13.88;100.00;100569.03;4959480;28;20124;-75
2023/07/02 04:39:08;;;;;;;10.30;3.75;;;;;;;13.86;100.00;100565.59;4961117;28;20044;-75
2023/07/02 04:41:54;;;;;;;9.88;4.07;;;;;;;13.87;100.00;100558.47;4960873;28;20035;-76
2023/07/02 04:44:43;;;;;;;10.85;3.95;;;;;;;13.87;100.00;100561.13;4959990;28;20082;-76
2023/07/02 04:47:29;;;;;;;8.65;3.78;;;;;;;13.85;100.00;100563.91;4962156;28;20421;-76
2023/07/02 04:50:15;;;;;;;8.93;3.92;;;;;;;13.85;100.00;100563.91;4960091;28;20121;-78
2023/07/02 04:53:01;;;;;;;10.45;3.92;;;;;;;13.86;100.00;100565.59;4961700;28;20038;-77
2023/07/02 04:55:47;;;;;;;13.02;3.75;;;;;;;13.88;100.00;100566.34;4954544;28;20035;-77
2023/07/02 04:58:33;;;;;;;13.75;3.50;;;;;;;13.91;100.00;100560.84;4944889;28;20046;-75
2023/07/02 05:01:19;;;;;;;9.70;3.60;;;;;;;14.00;100.00;100578.00;4959700;28;20213;-75
2023/07/02 05:04:05;;;;;;;15.38;4.05;;;;;;;14.10;100.00;100575.63;4961276;28;20162;-75
2023/07/02 05:06:51;;;;;;;9.52;3.40;;;;;;;14.19;100.00;100576.84;4960133;28;20102;-77
2023/07/02 05:09:37;;;;;;;11.63;3.80;;;;;;;14.24;100.00;100570.28;4961450;28;20042;-75
2023/07/02 05:12:23;;;;;;;10.52;3.60;;;;;;;14.25;100.00;100571.97;4960986;28;20556;-76
2023/07/02 05:15:09;;;;;;;8.35;3.38;;;;;;;14.22;100.00;100577.47;4960302;28;20125;-77
2023/07/02 05:17:55;;;;;;;8.75;3.33;;;;;;;14.21;100.00;100581.09;4960006;28;20045;-76
2023/07/02 05:20:41;;;;;;;8.85;3.63;;;;;;;14.17;100.00;100581.41;4958829;28;20055;-78
2023/07/02 05:23:27;;;;;;;14.98;3.92;;;;;;;14.13;100.00;100576.28;4959771;28;20424;-75
2023/07/02 05:26:13;;;;;;;12.15;4.40;;;;;;;14.11;100.00;100580.00;4949922;28;20983;-77
2023/07/02 05:28:59;;;;;;;10.85;4.13;;;;;;;14.10;100.00;100583.59;4960768;28;20034;-77
2023/07/02 05:31:44;;;;;;;10.00;3.50;;;;;;;14.14;100.00;100590.44;4944437;28;20453;-76
2023/07/02 05:34:30;;;;;;;8.23;3.50;;;;;;;14.25;100.00;100597.72;4959830;28;21612;-77
2023/07/02 05:37:16;;;;;;;8.82;3.15;;;;;;;14.38;100.00;100603.09;4959001;28;20565;-77
2023/07/02 05:40:02;;;;;;;9.65;3.75;;;;;;;14.52;100.00;100616.41;4960701;28;20039;-76
2023/07/02 05:42:51;;;;;;;9.25;3.30;;;;;;;14.70;100.00;100607.28;4959815;28;20058;-75
2023/07/02 05:45:37;;;;;;;9.60;3.03;;;;;;;14.89;100.00;100613.13;4960670;28;20501;-79
2023/07/02 05:48:23;;;;;;;8.85;3.72;;;;;;;15.14;100.00;100603.44;4959656;28;20064;-76
2023/07/02 05:51:08;;;;;;;9.35;2.92;;;;;;;15.36;100.00;100614.44;4948467;28;20465;-77
2023/07/02 05:53:54;;;;;;;10.95;3.90;;;;;;;15.41;100.00;100617.66;4959528;28;20538;-75
2023/07/02 05:56:40;;;;;;;10.15;3.67;;;;;;;15.33;100.00;100619.03;4945199;28;22069;-76
2023/07/02 05:59:29;;;;;;;11.10;3.80;;;;;;;15.21;100.00;100611.88;4959868;28;20456;-81
2023/07/02 06:02:14;;;;;;;9.77;3.30;;;;;;;15.23;100.00;100620.63;4959516;28;20051;-75
2023/07/02 06:05:01;;;;;;;9.80;3.25;;;;;;;15.38;100.00;100612.50;4959717;28;21896;-76
2023/07/02 06:07:47;;;;;;;8.45;3.15;;;;;;;15.58;100.00;100617.31;4957109;28;20051;-78
2023/07/02 06:10:33;;;;;;;6.68;2.72;;;;;;;15.80;100.00;100618.44;4959041;28;20160;-75
2023/07/02 06:13:19;;;;;;;7.15;3.08;;;;;;;15.99;100.00;100612.69;4959403;28;20068;-77
2023/07/02 06:16:05;;;;;;;12.35;2.90;;;;;;;16.19;100.00;100622.88;4954032;28;20070;-76
2023/07/02 06:18:51;;;;;;;8.60;2.92;;;;;;;16.37;100.00;100632.22;4963297;28;20046;-76
2023/07/02 06:21:36;;;;;;;6.43;2.67;;;;;;;16.53;100.00;100636.44;4952736;28;20030;-76
2023/07/02 06:24:22;;;;;;;9.98;2.42;;;;;;;16.60;97.33;100632.34;4962832;28;20055;-75
2023/07/02 06:27:08;;;;;;;7.10;2.58;;;;;;;16.77;97.77;100638.25;4963214;28;20043;-76
2023/07/02 06:29:54;;;;;;;5.15;2.72;;;;;;;16.91;97.47;100640.75;4962949;28;21879;-76
2023/07/02 06:32:40;;;;;;;6.88;2.20;;;;;;;16.93;95.16;100648.63;4963117;28;20049;-75
2023/07/02 06:35:26;;;;;;;6.65;2.53;;;;;;;16.87;96.45;100643.72;4957362;28;20035;-77
2023/07/02 06:38:11;;;;;;;8.43;2.05;;;;;;;16.97;96.34;100655.47;4964417;28;20047;-75
2023/07/02 06:40:57;;;;;;;8.40;2.92;;;;;;;17.16;95.63;100654.94;4963527;28;20034;-76
2023/07/02 06:43:43;;;;;;;6.05;2.30;;;;;;;17.10;94.43;100658.06;4963466;28;20042;-76
2023/07/02 06:46:30;;;;;;;10.35;2.53;;;;;;;17.07;94.43;100671.69;4963586;28;20438;-80
2023/07/02 06:49:15;;;;;;;4.45;2.13;;;;;;;16.93;93.06;100670.88;4962104;28;20061;-78
2023/07/02 06:52:01;;;;;;;6.95;2.05;;;;;;;16.95;93.01;100679.63;4949492;28;20064;-76
2023/07/02 06:54:47;;;;;;;7.97;2.55;;;;;;;17.16;94.53;100673.66;4961544;28;20030;-75
2023/07/02 06:57:33;;;;;;;8.75;2.30;;;;;;;17.31;91.71;100681.47;4947157;28;20060;-75
2023/07/02 07:00:19;;;;;;;6.05;2.58;;;;;;;17.50;91.83;100686.28;4949122;28;20522;-76
2023/07/02 07:03:05;;;;;;;7.22;2.28;;;;;;;17.65;91.26;100687.75;4960356;28;20062;-77
2023/07/02 07:05:53;;;;;;;8.88;2.10;;;;;;;17.68;90.49;100675.09;4961601;28;20163;-76
2023/07/02 07:08:39;;;;;;;6.43;2.50;;;;;;;17.76;90.09;100688.75;4951762;28;20042;-76
2023/07/02 07:11:24;;;;;;;5.43;2.00;;;;;;;17.70;88.07;100692.75;4961844;28;20038;-76
2023/07/02 07:14:10;;;;;;;7.88;2.30;;;;;;;17.75;88.95;100687.88;4965330;28;20042;-75
2023/07/02 07:16:56;;;;;;;6.28;2.30;;;;;;;17.83;89.74;100684.63;4965808;28;20113;-74
2023/07/02 07:19:42;;;;;;;5.90;2.33;;;;;;;18.09;90.38;100678.19;4964355;28;22102;-76
2023/07/02 07:22:28;;;;;;;8.13;2.25;;;;;;;18.21;89.11;100684.38;4963098;28;20066;-75
2023/07/02 07:25:14;;;;;;;7.75;2.58;;;;;;;18.10;87.75;100695.94;4965146;28;20035;-76
2023/07/02 07:28:00;;;;;;;8.32;2.38;;;;;;;17.88;87.80;100693.13;4966359;28;20039;-76
2023/07/02 07:30:45;;;;;;;3.95;2.45;;;;;;;17.58;88.97;100701.72;4958441;28;20045;-77
2023/07/02 07:33:31;;;;;;;5.40;2.38;;;;;;;17.37;89.40;100707.75;4961988;28;20133;-76
2023/07/02 07:36:17;;;;;;;8.18;2.70;;;;;;;17.27;90.30;100707.59;4961258;28;20588;-78
2023/07/02 07:39:03;;;;;;;7.25;2.60;;;;;;;17.26;90.42;100713.09;4962314;28;20087;-75
2023/07/02 07:41:48;;;;;;;9.18;2.70;;;;;;;17.42;91.85;100707.44;4963978;28;20067;-75
2023/07/02 07:44:34;;;;;;;7.32;2.90;;;;;;;17.70;91.60;100699.94;4949761;28;20063;-77
2023/07/02 07:47:20;;;;;;;7.40;3.15;;;;;;;17.95;90.82;100698.84;4961959;28;20031;-77
2023/07/02 07:50:10;;;;;;;8.82;2.65;;;;;;;17.94;88.66;100699.84;4961472;28;20150;-77
2023/07/02 07:52:59;;;;;;;5.60;2.30;;;;;;;17.71;87.85;100701.63;4953310;28;20043;-78
2023/07/02 07:55:44;;;;;;;7.72;2.78;;;;;;;17.38;88.26;100726.38;4958325;28;20062;-78
2023/07/02 07:58:31;;;;;;;7.65;2.75;;;;;;;17.27;90.06;100729.00;4959795;28;20131;-76
2023/07/02 08:01:18;;;;;;;8.18;2.78;;;;;;;17.44;90.09;100717.00;4947156;28;20129;-77
2023/07/02 08:04:03;;;;;;;6.35;2.40;;;;;;;17.65;87.67;100706.50;4961895;28;20556;-79
2023/07/02 08:06:49;;;;;;;9.00;3.13;;;;;;;17.57;89.31;100742.84;4949010;28;21072;-78
2023/07/02 08:09:35;;;;;;;8.52;2.70;;;;;;;17.55;89.21;100731.41;4961967;28;22028;-76
2023/07/02 08:12:21;;;;;;;6.95;2.35;;;;;;;17.72;89.75;100720.25;4961981;28;20086;-79
2023/07/02 08:15:07;;;;;;;8.20;2.70;;;;;;;17.97;88.63;100723.66;4961378;28;20054;-78
2023/07/02 08:17:54;;;;;;;6.85;2.80;;;;;;;18.32;88.33;100728.06;4960974;28;20335;-77
2023/07/02 08:20:40;;;;;;;8.32;2.67;;;;;;;18.70;88.27;100731.31;4960038;28;20414;-78
2023/07/02 08:23:26;;;;;;;8.40;2.28;;;;;;;18.84;84.96;100727.50;4963077;28;20129;-82
2023/07/02 08:26:13;;;;;;;6.10;2.40;;;;;;;18.86;86.44;100717.47;4961516;28;20043;-76
2023/07/02 08:28:59;;;;;;;7.35;2.70;;;;;;;18.59;85.76;100734.03;4949697;28;20039;-76
2023/07/02 08:31:45;;;;;;;6.85;2.72;;;;;;;18.26;85.78;100752.69;4963581;28;20049;-77
2023/07/02 08:34:31;;;;;;;8.00;2.78;;;;;;;17.89;87.80;100753.75;4962170;28;20506;-82
2023/07/02 08:37:20;;;;;;;7.15;2.20;;;;;;;17.51;89.21;100754.88;4959689;28;20053;-77
2023/07/02 08:40:16;;;;;;;8.00;2.72;;;;;;;17.32;89.80;100766.13;4961166;28;20047;-79
2023/07/02 08:43:02;;;;;;;7.95;2.90;;;;;;;17.30;91.78;100750.19;4947096;28;20117;-76
2023/07/02 08:45:47;;;;;;;8.48;2.55;;;;;;;17.35;91.41;100755.19;4948063;28;21873;-78
2023/07/02 08:48:34;;;;;;;7.18;2.17;;;;;;;17.22;89.75;100758.78;4948117;28;20042;-78
2023/07/02 08:51:20;;;;;;;5.63;2.50;;;;;;;17.09;87.03;100760.66;4959941;28;20038;-80
2023/07/02 08:54:06;;;;;;;6.72;1.90;;;;;;;16.97;89.05;100762.41;4960629;28;20051;-77
2023/07/02 08:56:52;;;;;;;7.93;2.88;;;;;;;16.88;89.20;100769.28;4938207;28;20096;-78
2023/07/02 08:59:37;;;;;;;7.47;2.40;;;;;;;16.86;89.20;100776.56;4947798;28;21577;-78
2023/07/02 09:02:36;;;;;;;5.72;2.22;;;;;;;17.16;88.10;100766.44;4958674;28;20052;-80
2023/07/02 09:05:22;;;;;;;7.55;2.30;;;;;;;17.59;89.67;100775.72;4958891;28;20035;-79
2023/07/02 09:08:07;;;;;;;5.45;2.15;;;;;;;17.99;89.30;100772.63;4960068;28;20054;-78
2023/07/02 09:10:54;;;;;;;4.75;2.42;;;;;;;17.99;88.13;100778.00;4958517;28;20096;-78
2023/07/02 09:13:58;;;;;;;7.65;2.40;;;;;;;17.97;85.37;100785.28;4962931;28;20030;-76
2023/07/02 09:16:44;;;;;;;8.20;2.50;;;;;;;17.86;87.86;100785.28;4959114;28;20114;-81
2023/07/02 09:19:30;;;;;;;8.35;2.60;;;;;;;17.62;87.14;100794.19;4960263;28;20066;-77
2023/07/02 09:22:16;;;;;;;7.57;2.67;;;;;;;17.79;89.86;100784.88;4948238;28;20161;-77
2023/07/02 09:25:02;;;;;;;6.50;2.30;;;;;;;18.16;88.85;100791.91;4962656;28;22022;-78
2023/07/02 09:27:48;;;;;;;5.95;2.47;;;;;;;18.24;87.41;100794.00;4959615;28;20518;-76
2023/07/02 09:30:34;;;;;;;6.20;2.58;;;;;;;18.07;85.74;100792.63;4959791;28;20054;-78
2023/07/02 09:33:23;;;;;;;6.05;2.22;;;;;;;17.97;87.19;100792.47;4949224;28;20101;-77
2023/07/02 09:36:10;;;;;;;6.97;2.47;;;;;;;18.10;87.96;100789.72;4958339;28;20102;-78
2023/07/02 09:38:56;;;;;;;8.48;3.08;;;;;;;18.34;86.35;100783.41;4960044;28;21308;-78
2023/07/02 09:41:43;;;;;;;7.15;2.42;;;;;;;18.28;84.77;100796.31;4959318;28;20187;-77
2023/07/02 09:44:34;;;;;;;7.38;2.55;;;;;;;18.20;84.36;100788.03;4958359;28;20038;-76
2023/07/02 09:47:21;;;;;;;6.78;2.20;;;;;;;18.11;82.80;100794.09;4960872;28;20043;-76
2023/07/02 09:50:08;;;;;;;8.55;2.20;;;;;;;17.99;83.18;100795.88;4947111;28;20125;-76
2023/07/02 09:52:54;;;;;;;6.30;2.38;;;;;;;17.89;84.51;100804.63;4960032;28;20038;-77
2023/07/02 09:55:42;;;;;;;7.53;2.55;;;;;;;17.81;84.55;100799.00;4949712;28;20039;-77
2023/07/02 09:58:31;;;;;;;7.35;2.15;;;;;;;17.69;84.93;100791.94;4950765;28;20670;-78
2023/07/02 10:01:17;;;;;;;7.68;2.40;;;;;;;17.63;85.85;100799.44;4946824;28;20043;-77
2023/07/02 10:04:18;;;;;;;7.03;2.75;;;;;;;17.74;85.22;100801.31;4957987;28;20059;-76
2023/07/02 10:07:04;;;;;;;3.35;2.13;;;;;;;17.70;85.31;100810.53;4959330;28;21013;-79
2023/07/02 10:09:50;;;;;;;4.72;2.28;;;;;;;17.60;86.25;100813.06;4961054;28;21891;-79
2023/07/02 10:12:46;;;;;;;7.70;2.58;;;;;;;17.58;85.34;100811.47;4947548;28;20541;-76
2023/07/02 10:15:37;;;;;;;6.40;2.10;;;;;;;17.71;86.44;100809.56;4960821;28;20058;-76
2023/07/02 10:18:26;;;;;;;5.97;2.10;;;;;;;17.77;84.04;100802.91;4961389;28;20039;-76
2023/07/02 10:21:18;;;;;;;6.93;1.95;;;;;;;17.91;83.88;100804.50;4959210;28;22095;-76
2023/07/02 10:24:14;;;;;;;5.50;2.05;;;;;;;17.93;84.49;100802.56;4948302;28;20051;-76
2023/07/02 10:27:02;;;;;;;6.10;2.28;;;;;;;18.06;82.70;100802.50;4948245;28;20043;-77
2023/07/02 10:29:51;;;;;;;5.78;1.98;;;;;;;18.08;82.51;100811.25;4947125;28;20043;-78
2023/07/02 10:32:38;;;;;;;7.00;2.00;;;;;;;18.28;83.36;100820.41;4960369;28;20034;-77
2023/07/02 10:35:25;;;;;;;4.70;1.92;;;;;;;18.42;83.53;100800.56;4960506;28;20050;-82
2023/07/02 10:38:19;;;;;;;5.70;1.95;;;;;;;18.45;82.17;100811.03;4958695;28;20866;-77
2023/07/02 10:41:04;;;;;;;5.47;1.67;;;;;;;18.37;82.40;100816.16;4959621;28;20035;-77
2023/07/02 10:43:50;;;;;;;6.75;2.40;;;;;;;18.27;83.72;100824.06;4960345;28;20129;-76
2023/07/02 10:46:48;;;;;;;5.50;2.13;;;;;;;18.24;83.46;100832.34;4950332;28;20869;-76
2023/07/02 10:49:34;;;;;;;8.13;2.30;;;;;;;18.03;83.92;100833.00;4958172;28;20177;-77
2023/07/02 10:52:20;;;;;;;5.47;2.30;;;;;;;17.86;85.03;100838.81;4960207;28;20156;-79
2023/07/02 10:55:06;;;;;;;4.72;2.10;;;;;;;17.75;85.10;100837.81;4958804;28;20458;-76
2023/07/02 10:58:06;;;;;;;7.18;1.80;;;;;;;17.64;83.35;100848.47;4959561;28;20690;-76
2023/07/02 11:00:52;;;;;;;5.00;1.95;;;;;;;17.57;84.89;100840.06;4961704;28;20031;-81
2023/07/02 11:03:38;;;;;;;6.32;2.03;;;;;;;17.57;85.67;100849.91;4962116;28;20445;-83
2023/07/02 11:06:24;;;;;;;3.95;1.80;;;;;;;17.71;86.33;100854.22;4956327;28;20050;-80
2023/07/02 11:09:20;;;;;;;4.78;1.98;;;;;;;17.74;85.12;100849.50;4969861;28;20048;-79
2023/07/02 11:12:07;;;;;;;6.25;2.00;;;;;;;17.71;85.32;100862.25;4965984;28;20045;-79
2023/07/02 11:14:52;;;;;;;7.78;1.73;;;;;;;17.65;84.98;100860.88;4960610;28;20105;-77
2023/07/02 11:17:44;;;;;;;8.25;2.08;;;;;;;17.54;85.11;100860.84;4958058;28;20501;-80
2023/07/02 11:20:33;;;;;;;4.28;1.80;;;;;;;17.53;84.87;100861.81;4966472;28;20118;-78
2023/07/02 11:23:24;;;;;;;5.15;2.15;;;;;;;17.67;82.49;100855.41;4957839;28;20138;-78
2023/07/02 11:26:10;;;;;;;3.97;1.90;;;;;;;17.85;83.64;100850.47;4951976;28;20038;-79
2023/07/02 11:28:56;;;;;;;4.13;1.80;;;;;;;17.95;81.86;100867.56;4960512;28;20542;-78
2023/07/02 11:31:41;;;;;;;4.45;1.73;;;;;;;17.97;79.55;100862.94;4962381;28;22137;-79
2023/07/02 11:34:28;;;;;;;5.03;1.90;;;;;;;18.03;79.75;100856.28;4948540;28;20207;-80
2023/07/02 11:37:13;;;;;;;6.18;2.13;;;;;;;18.14;80.65;100856.31;4949602;28;20065;-82
2023/07/02 11:39:59;;;;;;;7.22;2.30;;;;;;;18.23;80.77;100859.25;4962509;28;20121;-79
2023/07/02 11:42:45;;;;;;;6.45;2.13;;;;;;;18.22;81.11;100860.22;4954725;28;20058;-78
2023/07/02 11:45:31;;;;;;;8.07;2.25;;;;;;;18.29;81.23;100854.28;4966902;28;20031;-78
2023/07/02 11:48:17;;;;;;;3.67;2.00;;;;;;;18.48;80.42;100860.00;4959467;28;20039;-79
2023/07/02 11:51:03;;;;;;;6.30;2.13;;;;;;;18.64;79.96;100865.88;4962789;28;20050;-79
2023/07/02 11:53:50;;;;;;;3.88;1.88;;;;;;;18.93;80.54;100857.31;4945015;28;20046;-79
2023/07/02 11:56:36;;;;;;;6.25;2.50;;;;;;;19.14;79.74;100867.31;4964071;28;20093;-77
2023/07/02 11:59:22;;;;;;;5.60;2.13;;;;;;;19.16;78.39;100868.03;4958687;28;20038;-78
2023/07/02 12:02:08;;;;;;;7.05;2.30;;;;;;;19.07;78.02;100876.84;4964334;28;20053;-81
2023/07/02 12:04:54;;;;;;;5.47;2.20;;;;;;;18.73;75.68;100867.81;4944741;28;20047;-81
2023/07/02 12:07:39;;;;;;;6.43;2.40;;;;;;;18.50;77.29;100879.50;4945835;28;20035;-78
2023/07/02 12:10:25;;;;;;;7.90;2.38;;;;;;;18.32;79.46;100888.84;4927190;28;20034;-77
2023/07/02 12:13:14;;;;;;;10.00;2.63;;;;;;;18.20;79.12;100895.19;4942871;28;20096;-80
2023/07/02 12:16:00;;;;;;;12.73;3.33;;;;;;;18.14;79.73;100895.66;4956613;28;20046;-78
2023/07/02 12:18:46;;;;;;;8.07;3.00;;;;;;;18.04;80.60;100896.31;4943732;28;20047;-78
2023/07/02 12:21:32;;;;;;;7.75;2.60;;;;;;;17.95;81.53;100902.38;4945371;28;20494;-82
2023/07/02 12:24:18;;;;;;;6.38;3.08;;;;;;;17.81;81.71;100910.59;4956190;28;20637;-76
2023/07/02 12:27:04;;;;;;;7.90;2.70;;;;;;;17.72;82.65;100912.16;4955636;28;20414;-85
2023/07/02 12:29:53;;;;;;;11.05;3.33;;;;;;;17.57;84.39;100912.31;4941947;28;20048;-82
2023/07/02 12:32:39;;;;;;;8.13;2.95;;;;;;;17.37;84.72;100914.66;4945033;28;22009;-79
2023/07/02 12:35:24;;;;;;;8.30;3.60;;;;;;;17.32;86.73;100926.66;4954841;28;20677;-78
2023/07/02 12:38:10;;;;;;;8.10;3.22;;;;;;;17.26;87.53;100921.75;4944485;28;20122;-80
2023/07/02 12:40:56;;;;;;;8.23;3.25;;;;;;;17.13;88.32;100922.66;4930810;28;21157;-78
2023/07/02 12:43:43;;;;;;;7.18;3.00;;;;;;;16.99;89.22;100912.91;4945486;28;20054;-77
2023/07/02 12:46:28;;;;;;;8.02;3.05;;;;;;;16.93;89.99;100922.22;4955954;28;20429;-78